Time;durP1;ratioP1;P1;durP2;ratioP2;P2;SDS_P1;SDS_P2;PMS_P1;PMS_P2;Temp;Humidity;BMP_temperature;BMP_pressure;BME280_temperature;BME280_humidity;BME280_pressure;Samples;Min_cycle;Max_cycle;Signal;HPM_P1;HPM_P2
2022/09/28 00:02:06;;;;;;;25.48;17.05;;;;;;;13.51;100.00;98259.56;1718842;82;21044;-49
2022/09/28 00:04:33;;;;;;;20.62;16.42;;;;;;;13.50;100.00;98259.20;1719828;82;21002;-49
2022/09/28 00:07:00;;;;;;;19.80;17.23;;;;;;;13.51;100.00;98261.41;1722615;82;21054;-49
2022/09/28 00:09:26;;;;;;;20.10;15.70;;;;;;;13.51;100.00;98269.03;1722525;82;21681;-48
2022/09/28 00:11:52;;;;;;;20.25;17.00;;;;;;;13.49;100.00;98266.94;1724155;82;21241;-49
2022/09/28 00:14:19;;;;;;;20.15;17.75;;;;;;;13.49;100.00;98264.23;1655358;85;21488;-49
2022/09/28 00:16:47;;;;;;;18.00;16.10;;;;;;;13.51;100.00;98269.52;1723528;82;21023;-49
2022/09/28 00:19:13;;;;;;;18.30;16.12;;;;;;;13.50;100.00;98269.15;1726336;82;21013;-48
2022/09/28 00:21:40;;;;;;;20.32;17.23;;;;;;;13.51;100.00;98262.76;1725213;82;21704;-48
2022/09/28 00:24:17;;;;;;;25.88;17.62;;;;;;;13.51;100.00;98270.37;1720716;82;21026;-48
2022/09/28 00:26:53;;;;;;;22.45;16.97;;;;;;;13.52;100.00;98264.48;1654324;85;21035;-49
2022/09/28 00:29:34;;;;;;;22.35;16.23;;;;;;;13.52;100.00;98263.98;1722319;82;20976;-48
2022/09/28 00:32:03;;;;;;;19.95;16.57;;;;;;;13.52;100.00;98257.23;1722718;82;20990;-49
2022/09/28 00:34:33;;;;;;;18.82;16.60;;;;;;;13.53;100.00;98245.89;1649513;85;22619;-49
2022/09/28 00:37:01;;;;;;;19.02;15.98;;;;;;;13.51;100.00;98253.30;1710839;82;21039;-49
2022/09/28 00:39:30;;;;;;;20.92;17.60;;;;;;;13.50;100.00;98257.84;1714651;82;21531;-48
2022/09/28 00:41:56;;;;;;;20.23;16.55;;;;;;;13.49;100.00;98258.83;1714051;82;21867;-49
2022/09/28 00:44:35;;;;;;;24.52;17.23;;;;;;;13.50;100.00;98263.25;1710274;82;21027;-48
2022/09/28 00:47:28;;;;;;;21.48;15.93;;;;;;;13.51;100.00;98261.41;1708670;82;21661;-49
2022/09/28 00:50:12;;;;;;;19.40;16.42;;;;;;;13.50;100.00;98252.44;1720322;82;21071;-49
2022/09/28 00:53:03;;;;;;;22.90;16.52;;;;;;;13.51;100.00;98255.52;1720263;82;21765;-49
2022/09/28 00:55:51;;;;;;;19.77;16.25;;;;;;;13.53;100.00;98258.92;1650940;85;21064;-49
2022/09/28 00:58:29;;;;;;;20.02;16.32;;;;;;;13.53;100.00;98252.16;1721831;81;21635;-49
2022/09/28 01:00:56;;;;;;;18.90;16.40;;;;;;;13.52;100.00;98243.72;1741125;81;22409;-49
2022/09/28 01:03:24;;;;;;;20.55;16.17;;;;;;;13.54;100.00;98244.42;1716164;83;21542;-49
2022/09/28 01:05:51;;;;;;;20.45;16.90;;;;;;;13.55;100.00;98252.04;1722613;82;21030;-49
2022/09/28 01:08:19;;;;;;;23.25;16.27;;;;;;;13.55;100.00;98254.73;1694858;82;21125;-49
2022/09/28 01:13:01;;;;;;;20.75;17.80;;;;;;;13.57;100.00;98237.41;1792410;78;27962;-49
2022/09/28 01:15:28;;;;;;;20.25;17.25;;;;;;;13.55;100.00;98250.20;1765751;79;21037;-49
2022/09/28 01:18:09;;;;;;;18.52;16.57;;;;;;;13.54;100.00;98248.48;1760719;79;21835;-48
2022/09/28 01:21:04;;;;;;;19.90;16.02;;;;;;;13.54;100.00;98256.59;1763872;79;21897;-49
2022/09/28 01:23:53;;;;;;;19.80;15.78;;;;;;;13.55;100.00;98253.39;1765875;79;21028;-50
2022/09/28 01:26:58;;;;;;;17.60;15.48;;;;;;;13.55;100.00;98254.73;1761649;79;21073;-50
2022/09/28 01:29:35;;;;;;;17.50;15.35;;;;;;;13.54;100.00;98245.77;1766288;79;21141;-49
2022/09/28 01:32:20;;;;;;;18.55;15.30;;;;;;;13.51;100.00;98249.25;1730539;81;21899;-50
2022/09/28 01:35:07;;;;;;;17.37;15.50;;;;;;;13.49;100.00;98241.26;1729859;81;21585;-50
2022/09/28 01:37:48;;;;;;;20.57;16.87;;;;;;;13.49;100.00;98230.45;1705488;81;20978;-49
2022/09/28 01:40:14;;;;;;;18.73;15.93;;;;;;;13.50;100.00;98238.92;1712603;81;21339;-49
2022/09/28 01:42:41;;;;;;;16.90;15.15;;;;;;;13.52;100.00;98227.98;1712974;81;21085;-50
2022/09/28 01:45:26;;;;;;;18.30;16.00;;;;;;;13.54;100.00;98235.45;1717058;81;21166;-48
2022/09/28 01:47:56;;;;;;;20.50;14.93;;;;;;;13.53;100.00;98240.48;1730006;81;22142;-49
2022/09/28 01:50:23;;;;;;;18.20;15.13;;;;;;;13.54;100.00;98236.80;1720891;81;20985;-49
2022/09/28 01:53:07;;;;;;;17.62;15.70;;;;;;;13.53;100.00;98245.41;1707459;83;21099;-49
2022/09/28 01:55:40;;;;;;;20.23;15.53;;;;;;;13.54;100.00;98240.36;1707444;83;21050;-49
2022/09/28 01:58:17;;;;;;;17.23;14.47;;;;;;;13.54;100.00;98244.91;1708587;82;21272;-48
2022/09/28 02:00:47;;;;;;;18.73;14.40;;;;;;;13.55;100.00;98237.17;1737922;81;21042;-45
2022/09/28 02:03:23;;;;;;;20.37;16.50;;;;;;;13.55;100.00;98243.44;1709303;82;21118;-49
2022/09/28 02:06:04;;;;;;;17.23;14.68;;;;;;;13.55;100.00;98241.23;1709836;82;21049;-46
2022/09/28 02:08:41;;;;;;;16.95;14.75;;;;;;;13.54;100.00;98243.06;1739526;81;21038;-47
2022/09/28 02:11:17;;;;;;;18.77;14.33;;;;;;;13.53;100.00;98242.70;1701012;82;21221;-47
2022/09/28 02:13:57;;;;;;;16.27;13.18;;;;;;;13.53;100.00;98249.95;1713302;82;21015;-45
2022/09/28 02:16:42;;;;;;;20.12;14.93;;;;;;;13.54;100.00;98257.08;1752093;80;21780;-45
2022/09/28 02:19:12;;;;;;;18.75;15.03;;;;;;;13.54;100.00;98251.67;1753142;80;21109;-47
2022/09/28 02:21:51;;;;;;;17.07;15.28;;;;;;;13.53;100.00;98246.75;1747098;80;21783;-46
2022/09/28 02:24:27;;;;;;;20.32;15.55;;;;;;;13.53;100.00;98240.00;1756076;80;21559;-46
2022/09/28 02:26:55;;;;;;;17.60;15.72;;;;;;;13.54;100.00;98239.50;1754306;80;21523;-46
2022/09/28 02:29:22;;;;;;;20.17;17.92;;;;;;;13.53;100.00;98237.78;1750257;80;21405;-48
2022/09/28 02:31:51;;;;;;;19.50;17.15;;;;;;;13.52;100.00;98235.61;1752826;80;21058;-47
2022/09/28 02:34:18;;;;;;;18.57;15.13;;;;;;;13.51;100.00;98239.29;1753712;80;22381;-48
2022/09/28 02:36:45;;;;;;;20.88;16.93;;;;;;;13.49;100.00;98238.55;1743311;80;21096;-45
2022/09/28 02:39:14;;;;;;;19.20;14.90;;;;;;;13.48;100.00;98244.94;1706182;81;21630;-45
2022/09/28 02:42:04;;;;;;;18.10;15.35;;;;;;;13.47;100.00;98251.83;1752237;80;21127;-44
2022/09/28 02:45:03;;;;;;;15.20;13.20;;;;;;;13.46;100.00;98253.67;1753212;80;21050;-45
2022/09/28 02:47:51;;;;;;;19.45;14.18;;;;;;;13.46;100.00;98256.37;1751038;80;21132;-45
2022/09/28 02:50:24;;;;;;;16.95;13.93;;;;;;;13.47;100.00;98255.39;1750845;80;21255;-48
2022/09/28 02:53:05;;;;;;;14.70;13.20;;;;;;;13.49;100.00;98251.21;1751862;80;21049;-47
2022/09/28 02:55:44;;;;;;;15.93;14.28;;;;;;;13.50;100.00;98256.49;1751041;80;21022;-46
2022/09/28 02:58:26;;;;;;;19.52;15.05;;;;;;;13.53;100.00;98262.97;1746589;80;21087;-46
2022/09/28 03:01:18;;;;;;;15.88;14.03;;;;;;;13.54;100.00;98260.64;1745957;80;21642;-49
2022/09/28 03:04:20;;;;;;;17.02;14.78;;;;;;;13.53;100.00;98244.55;1697177;82;22785;-45
2022/09/28 03:07:13;;;;;;;17.40;15.55;;;;;;;13.52;100.00;98250.97;1687985;82;20991;-45
2022/09/28 03:10:04;;;;;;;19.50;17.48;;;;;;;13.50;100.00;98256.98;1737135;80;20855;-48
2022/09/28 03:12:32;;;;;;;18.02;14.90;;;;;;;13.48;100.00;98253.55;1745371;79;21085;-46
2022/09/28 03:15:24;;;;;;;15.30;13.68;;;;;;;13.47;100.00;98258.09;1742902;80;21036;-47
2022/09/28 03:17:51;;;;;;;19.35;15.32;;;;;;;13.46;100.00;98256.86;1719061;80;22587;-47
2022/09/28 03:20:18;;;;;;;18.52;14.35;;;;;;;13.45;100.00;98255.14;1752039;80;21493;-45
2022/09/28 03:22:44;;;;;;;17.20;15.05;;;;;;;13.44;100.00;98251.58;1746399;80;20983;-46
2022/09/28 03:25:11;;;;;;;16.45;14.63;;;;;;;13.45;100.00;98247.03;1741238;80;21149;-49
2022/09/28 03:27:38;;;;;;;20.32;14.85;;;;;;;13.46;100.00;98242.00;1741573;80;22003;-46
2022/09/28 03:30:06;;;;;;;17.50;15.25;;;;;;;13.47;100.00;98238.31;1747434;80;21391;-46
2022/09/28 03:32:33;;;;;;;19.82;13.93;;;;;;;13.47;100.00;98245.06;1730041;80;21438;-49
2022/09/28 03:34:59;;;;;;;18.27;14.13;;;;;;;13.45;100.00;98239.78;1738486;80;21004;-48
2022/09/28 03:37:26;;;;;;;15.95;13.75;;;;;;;13.43;100.00;98243.13;1738270;80;20960;-48
2022/09/28 03:39:53;;;;;;;18.92;14.85;;;;;;;13.43;100.00;98251.24;1734624;80;20995;-47
2022/09/28 03:42:19;;;;;;;19.50;14.60;;;;;;;13.44;100.00;98252.93;1739580;80;21452;-45
2022/09/28 03:44:48;;;;;;;19.30;14.95;;;;;;;13.44;100.00;98247.52;1738903;81;21133;-47
2022/09/28 03:47:16;;;;;;;15.23;13.30;;;;;;;13.44;100.00;98249.40;1737821;80;21053;-49
2022/09/28 03:49:44;;;;;;;18.57;15.48;;;;;;;13.43;100.00;98248.54;1735068;80;21855;-46
2022/09/28 03:52:11;;;;;;;18.87;15.80;;;;;;;13.45;100.00;98261.41;1733210;81;21725;-47
2022/09/28 03:54:38;;;;;;;16.85;15.00;;;;;;;13.46;100.00;98259.56;1726729;81;21741;-46
2022/09/28 03:57:04;;;;;;;16.50;14.83;;;;;;;13.46;100.00;98259.08;1738028;80;21330;-50
2022/09/28 03:59:31;;;;;;;18.95;16.80;;;;;;;13.46;100.00;98253.67;1728766;81;21396;-45
2022/09/28 04:01:57;;;;;;;18.37;16.60;;;;;;;13.47;100.00;98253.17;1733018;81;21540;-46
2022/09/28 04:04:25;;;;;;;21.02;17.48;;;;;;;13.46;100.00;98258.21;1742626;81;21671;-46
2022/09/28 04:06:51;;;;;;;17.77;15.88;;;;;;;13.46;100.00;98256.86;1739460;80;21480;-47
2022/09/28 04:09:17;;;;;;;17.30;14.15;;;;;;;13.44;100.00;98262.39;1734075;81;21916;-48
2022/09/28 04:11:46;;;;;;;14.55;13.13;;;;;;;13.44;100.00;98262.91;1731120;80;21064;-50
2022/09/28 04:14:14;;;;;;;21.55;16.73;;;;;;;13.43;100.00;98262.55;1757247;79;21069;-45
2022/09/28 04:16:40;;;;;;;18.50;16.50;;;;;;;13.41;100.00;98259.96;1758252;80;21018;-45
2022/09/28 04:19:09;;;;;;;16.23;14.43;;;;;;;13.40;100.00;98256.89;1755466;79;22394;-47
2022/09/28 04:21:39;;;;;;;16.93;14.78;;;;;;;13.41;100.00;98265.37;1761655;80;21049;-45
2022/09/28 04:24:10;;;;;;;19.35;15.40;;;;;;;13.41;100.00;98252.34;1755412;80;21529;-44
2022/09/28 04:26:36;;;;;;;17.17;15.38;;;;;;;13.43;100.00;98252.59;1750103;79;21030;-45
2022/09/28 04:29:15;;;;;;;17.85;15.00;;;;;;;13.44;100.00;98249.40;1754352;80;21092;-48
2022/09/28 04:31:48;;;;;;;19.45;17.02;;;;;;;13.44;100.00;98252.93;1757558;79;22198;-47
2022/09/28 04:34:18;;;;;;;15.50;13.85;;;;;;;13.46;100.00;98244.20;1757897;79;21555;-46
2022/09/28 04:36:44;;;;;;;19.77;17.67;;;;;;;13.46;100.00;98244.20;1759522;80;21042;-49
2022/09/28 04:39:12;;;;;;;20.27;17.17;;;;;;;13.49;100.00;98235.85;1754247;80;21084;-45
2022/09/28 04:41:41;;;;;;;19.00;16.40;;;;;;;13.50;100.00;98236.71;1734904;79;21599;-48
2022/09/28 04:44:08;;;;;;;17.85;15.72;;;;;;;13.51;100.00;98237.94;1759769;80;21380;-46
2022/09/28 04:46:36;;;;;;;18.23;16.40;;;;;;;13.52;100.00;98246.42;1756487;80;21064;-50
2022/09/28 04:49:21;;;;;;;17.42;15.53;;;;;;;13.55;100.00;98253.39;1756968;80;21147;-45
2022/09/28 04:51:50;;;;;;;22.40;16.93;;;;;;;13.55;100.00;98253.39;1755206;80;21531;-47
2022/09/28 04:54:17;;;;;;;19.07;16.93;;;;;;;13.54;100.00;98255.23;1752868;80;21053;-47
2022/09/28 04:56:44;;;;;;;17.95;16.07;;;;;;;13.55;100.00;98255.60;1757333;80;22239;-46
2022/09/28 04:59:12;;;;;;;22.15;17.62;;;;;;;13.56;100.00;98248.35;1755158;80;21508;-44
2022/09/28 05:01:39;;;;;;;20.32;18.20;;;;;;;13.57;100.00;98239.26;1763413;79;21088;-45
2022/09/28 05:04:18;;;;;;;22.25;19.87;;;;;;;13.58;100.00;98251.30;1762511;79;22312;-46
2022/09/28 05:06:49;;;;;;;25.00;18.92;;;;;;;13.59;100.00;98247.61;1704584;80;21093;-47
2022/09/28 05:09:15;;;;;;;24.65;19.20;;;;;;;13.59;100.00;98250.31;1758384;79;22363;-45
2022/09/28 05:11:42;;;;;;;20.25;17.57;;;;;;;13.59;100.00;98248.11;1742961;80;21068;-46
2022/09/28 05:14:11;;;;;;;18.57;16.37;;;;;;;13.60;100.00;98249.83;1761610;80;21537;-46
2022/09/28 05:16:40;;;;;;;19.30;17.30;;;;;;;13.60;100.00;98243.92;1758028;80;21078;-45
2022/09/28 05:19:25;;;;;;;;;;;;;;;13.63;100.00;98245.49;1762763;79;21123;-48
2022/09/28 05:21:54;;;;;;;15.95;14.28;;;;;;;13.66;100.00;98249.30;1754967;79;21575;-47
2022/09/28 05:24:20;;;;;;;16.87;14.93;;;;;;;13.69;100.00;98259.01;1755953;80;21088;-45
2022/09/28 05:26:49;;;;;;;19.40;15.25;;;;;;;13.71;100.00;98255.16;1761529;79;21092;-49
2022/09/28 05:29:17;;;;;;;20.95;17.07;;;;;;;13.76;100.00;98262.41;1763097;80;20998;-47
2022/09/28 05:32:02;;;;;;;23.40;18.42;;;;;;;13.80;100.00;98262.99;1760113;80;21097;-46
2022/09/28 05:34:46;;;;;;;23.77;18.03;;;;;;;13.83;100.00;98264.95;1654336;84;21753;-45
2022/09/28 05:37:14;;;;;;;19.75;16.90;;;;;;;13.86;100.00;98266.55;1727593;80;21034;-46
2022/09/28 05:39:41;;;;;;;20.90;16.45;;;;;;;13.88;100.00;98274.02;1753384;80;21093;-46
2022/09/28 05:42:07;;;;;;;21.25;17.02;;;;;;;13.88;100.00;98276.23;1757584;80;21557;-46
2022/09/28 05:44:34;;;;;;;18.07;14.73;;;;;;;13.87;100.00;98282.62;1721276;82;21468;-46
2022/09/28 05:47:01;;;;;;;16.70;14.95;;;;;;;13.87;100.00;98283.97;1757335;80;21296;-46
2022/09/28 05:49:30;;;;;;;14.47;12.95;;;;;;;13.89;100.00;98284.71;1759430;80;21440;-46
2022/09/28 05:51:56;;;;;;;17.45;14.40;;;;;;;13.92;100.00;98289.88;1757241;80;21077;-48
2022/09/28 05:54:22;;;;;;;19.52;14.33;;;;;;;13.93;100.00;98286.67;1755568;80;21804;-47
2022/09/28 05:56:50;;;;;;;17.42;15.60;;;;;;;13.95;100.00;98292.30;1755969;80;21042;-46
2022/09/28 05:59:16;;;;;;;17.00;15.00;;;;;;;13.98;100.00;98287.13;1758852;80;21110;-46
2022/09/28 06:01:43;;;;;;;19.32;14.73;;;;;;;14.00;100.00;98289.22;1695475;82;21058;-46
2022/09/28 06:04:10;;;;;;;14.18;12.68;;;;;;;14.01;100.00;98294.50;1696006;82;21471;-47
2022/09/28 06:06:37;;;;;;;14.58;13.18;;;;;;;14.03;100.00;98286.27;1768522;80;20938;-48
2022/09/28 06:09:04;;;;;;;15.75;12.47;;;;;;;14.07;100.00;98290.41;1761945;80;20949;-46
2022/09/28 06:11:35;;;;;;;13.15;11.73;;;;;;;14.11;100.00;98286.95;1710195;80;20872;-47
2022/09/28 06:14:07;;;;;;;11.03;10.05;;;;;;;14.14;100.00;98292.94;1751946;80;21090;-49
2022/09/28 06:16:34;;;;;;;11.70;10.50;;;;;;;14.14;100.00;98294.79;1715334;82;21489;-49
2022/09/28 06:19:01;;;;;;;13.80;12.35;;;;;;;14.17;100.00;98287.28;1755633;80;21405;-45
2022/09/28 06:21:29;;;;;;;14.25;12.80;;;;;;;14.22;100.00;98290.44;1706609;80;22176;-49
2022/09/28 06:23:56;;;;;;;12.07;10.58;;;;;;;14.25;100.00;98278.50;1754192;80;21089;-47
2022/09/28 06:26:23;;;;;;;13.03;11.70;;;;;;;14.29;100.00;98276.73;1751058;80;20928;-46
2022/09/28 06:28:49;;;;;;;12.40;11.05;;;;;;;14.33;100.00;98284.10;1755515;80;21414;-45
2022/09/28 06:31:16;;;;;;;8.83;8.03;;;;;;;14.35;100.00;98280.78;1755193;80;20939;-46
2022/09/28 06:33:45;;;;;;;9.58;8.23;;;;;;;14.38;100.00;98271.91;1755282;79;21026;-48
2022/09/28 06:36:12;;;;;;;10.72;9.65;;;;;;;14.45;100.00;98270.05;1753443;79;21286;-46
2022/09/28 06:38:39;;;;;;;10.63;9.73;;;;;;;14.47;100.00;98266.19;1756470;80;20978;-48
2022/09/28 06:41:05;;;;;;;9.73;8.83;;;;;;;14.50;100.00;98266.42;1755411;80;21030;-47
2022/09/28 06:43:33;;;;;;;10.13;9.23;;;;;;;14.52;100.00;98261.73;1756662;80;20975;-47
2022/09/28 06:46:12;;;;;;;8.78;8.05;;;;;;;14.54;100.00;98258.41;1753434;80;21018;-46
2022/09/28 06:48:57;;;;;;;8.08;7.37;;;;;;;14.56;100.00;98264.03;1753430;80;21583;-49
2022/09/28 06:51:41;;;;;;;7.25;6.53;;;;;;;14.59;100.00;98261.56;1679576;83;21031;-47
2022/09/28 06:54:15;;;;;;;9.48;8.78;;;;;;;14.61;100.00;98262.28;1706824;80;21085;-45
2022/09/28 06:56:58;;;;;;;10.08;9.08;;;;;;;14.64;100.00;98257.44;1754134;79;21168;-49
2022/09/28 06:59:25;;;;;;;17.70;12.07;;;;;;;14.64;100.00;98263.34;1748405;80;21054;-45
2022/09/28 07:01:53;;;;;;;19.40;11.97;;;;;;;14.63;100.00;98262.48;1749392;80;21464;-46
2022/09/28 07:04:41;;;;;;;41.98;15.23;;;;;;;14.65;100.00;98266.42;1691369;83;21086;-47
2022/09/28 07:07:10;;;;;;;28.30;12.78;;;;;;;14.62;100.00;98259.45;1755260;80;21053;-46
2022/09/28 07:09:45;;;;;;;16.32;10.58;;;;;;;14.60;100.00;98255.16;1756459;80;21469;-45
2022/09/28 07:12:24;;;;;;;12.40;10.00;;;;;;;14.57;100.00;98245.44;1751658;80;21592;-45
2022/09/28 07:14:57;;;;;;;10.07;9.17;;;;;;;14.56;100.00;98244.22;1759032;80;21516;-45
2022/09/28 07:17:25;;;;;;;10.32;9.43;;;;;;;14.57;100.00;98240.02;1701675;82;22402;-46
2022/09/28 07:19:52;;;;;;;10.30;9.30;;;;;;;14.60;100.00;98241.12;1761199;80;21438;-47
2022/09/28 07:22:19;;;;;;;10.90;9.95;;;;;;;14.64;100.00;98238.98;1759092;80;21156;-45
2022/09/28 07:24:47;;;;;;;10.32;9.43;;;;;;;14.68;100.00;98235.02;1763472;80;21061;-45
2022/09/28 07:27:25;;;;;;;12.15;10.98;;;;;;;14.73;100.00;98239.52;1756052;79;22476;-48
2022/09/28 07:29:59;;;;;;;;;;;;;;;14.75;100.00;98239.75;1719537;80;21511;-45
2022/09/28 07:32:36;;;;;;;12.18;10.68;;;;;;;14.76;100.00;98240.11;1757524;80;20621;-47
2022/09/28 07:35:22;;;;;;;15.30;10.20;;;;;;;14.76;100.00;98242.83;1673508;83;21081;-47
2022/09/28 07:38:00;;;;;;;11.78;10.60;;;;;;;14.76;100.00;98240.61;1671217;83;21156;-47
2022/09/28 07:43:12;;;;;;;17.45;11.43;;;;;;;14.74;100.00;98241.23;1757152;80;21422;-51
2022/09/28 07:45:41;;;;;;;37.13;13.13;;;;;;;14.74;100.00;98242.59;1761479;79;21135;-47
2022/09/28 07:48:09;;;;;;;27.73;13.55;;;;;;;14.75;100.00;98239.75;1741726;80;21142;-46
2022/09/28 07:50:56;;;;;;;17.70;13.68;;;;;;;14.80;100.00;98247.45;1759557;80;21559;-50
2022/09/28 07:53:37;;;;;;;15.93;14.25;;;;;;;14.84;100.00;98248.91;1756484;80;21422;-47
2022/09/28 07:56:22;;;;;;;17.90;14.80;;;;;;;14.86;100.00;98255.05;1760818;80;21542;-47
2022/09/28 07:58:56;;;;;;;16.07;13.78;;;;;;;14.89;100.00;98250.70;1755274;80;21093;-47
2022/09/28 08:01:36;;;;;;;14.90;12.70;;;;;;;14.89;100.00;98241.22;1686612;82;21073;-47
2022/09/28 08:04:02;;;;;;;14.33;12.93;;;;;;;14.90;100.00;98235.30;1763476;80;21072;-47
2022/09/28 08:06:29;;;;;;;15.58;13.45;;;;;;;14.91;100.00;98238.38;1762338;80;21725;-47
2022/09/28 08:08:58;;;;;;;15.28;12.63;;;;;;;14.94;100.00;98236.26;1758574;80;21555;-48
2022/09/28 08:11:27;;;;;;;14.30;11.90;;;;;;;15.01;100.00;98232.00;1758939;80;21052;-47
2022/09/28 08:14:12;;;;;;;13.65;12.35;;;;;;;15.11;100.00;98226.11;1751827;80;21389;-50
2022/09/28 08:16:46;;;;;;;15.05;13.53;;;;;;;15.17;100.00;98226.04;1741342;80;21061;-48
2022/09/28 08:19:15;;;;;;;23.73;15.03;;;;;;;15.14;100.00;98232.59;1736924;80;21330;-48
2022/09/28 08:21:44;;;;;;;18.62;15.23;;;;;;;15.19;100.00;98238.10;1742865;80;21093;-47
2022/09/28 08:24:14;;;;;;;14.68;13.28;;;;;;;15.26;100.00;98233.83;1743358;80;21034;-49
2022/09/28 08:26:42;;;;;;;14.20;12.75;;;;;;;15.34;100.00;98232.63;1746475;80;21733;-47
2022/09/28 08:29:10;;;;;;;10.63;9.63;;;;;;;15.44;100.00;98230.80;1745888;80;21739;-46
2022/09/28 08:31:40;;;;;;;10.68;9.63;;;;;;;15.58;100.00;98230.41;1729585;80;23360;-47
2022/09/28 08:34:12;;;;;;;10.55;9.10;;;;;;;15.74;100.00;98230.69;1739621;80;21129;-49
2022/09/28 08:36:43;;;;;;;10.40;9.45;;;;;;;15.89;100.00;98231.13;1724701;80;21050;-48
2022/09/28 08:39:28;;;;;;;10.00;9.00;;;;;;;16.01;100.00;98224.53;1747790;80;21583;-48
2022/09/28 08:42:11;;;;;;;13.35;12.05;;;;;;;16.12;100.00;98223.52;1743631;80;21288;-46
2022/09/28 08:45:08;;;;;;;16.00;14.28;;;;;;;16.18;100.00;98222.43;1698648;82;21647;-48
2022/09/28 08:51:29;;;;;;;13.55;11.90;;;;;;;16.26;100.00;98227.98;1697751;82;21133;-47
2022/09/28 08:54:47;;;;;;;15.50;12.13;;;;;;;16.28;100.00;98229.20;1750906;80;20979;-47
2022/09/28 08:57:26;;;;;;;12.10;10.55;;;;;;;16.28;100.00;98233.27;1747081;80;21124;-47
2022/09/28 08:59:55;;;;;;;8.43;7.60;;;;;;;16.30;100.00;98229.92;1752470;80;22650;-49
2022/09/28 09:02:35;;;;;;;9.13;8.28;;;;;;;16.32;100.00;98229.28;1749153;80;20979;-47
2022/09/28 09:05:25;;;;;;;9.15;8.45;;;;;;;16.37;100.00;98229.68;1747161;80;21014;-48
2022/09/28 09:08:16;;;;;;;9.88;8.95;;;;;;;16.41;100.00;98228.90;1750029;80;21015;-50
2022/09/28 09:11:21;;;;;;;9.30;8.50;;;;;;;16.44;100.00;98229.44;1723761;80;20994;-47
2022/09/28 09:14:15;;;;;;;11.35;9.58;;;;;;;16.47;100.00;98221.51;1750251;80;21090;-49
2022/09/28 09:16:59;;;;;;;9.08;8.18;;;;;;;16.48;100.00;98221.37;1761833;80;21005;-47
2022/09/28 09:20:01;;;;;;;8.00;7.25;;;;;;;16.48;100.00;98221.37;1756535;80;21384;-49
2022/09/28 09:22:56;;;;;;;8.30;7.53;;;;;;;16.50;100.00;98217.98;1697110;82;21085;-46
2022/09/28 09:25:47;;;;;;;8.45;7.75;;;;;;;16.54;100.00;98222.12;1670727;80;20996;-46
2022/09/28 09:28:45;;;;;;;8.80;8.00;;;;;;;16.58;100.00;98219.98;1738655;80;21001;-50
2022/09/28 09:31:25;;;;;;;11.30;8.28;;;;;;;16.62;100.00;98222.77;1765001;80;21551;-48
2022/09/28 09:34:34;;;;;;;8.63;7.80;;;;;;;16.61;100.00;98216.48;1761693;80;21407;-46
2022/09/28 09:38:03;;;;;;;9.13;8.40;;;;;;;16.61;100.00;98223.77;1762461;80;21076;-48
2022/09/28 09:40:55;;;;;;;8.65;7.95;;;;;;;16.64;100.00;98229.78;1726480;80;21781;-47
2022/09/28 09:44:04;;;;;;;8.83;8.13;;;;;;;16.67;100.00;98232.70;1738164;80;22262;-46
2022/09/28 09:46:56;;;;;;;16.67;9.00;;;;;;;16.69;100.00;98232.03;1763949;80;21073;-46
2022/09/28 09:49:33;;;;;;;8.00;7.30;;;;;;;16.72;100.00;98233.60;1760728;80;21328;-46
2022/09/28 09:52:29;;;;;;;7.22;6.67;;;;;;;16.74;100.00;98237.89;1760113;80;21362;-48
2022/09/28 09:55:23;;;;;;;7.70;7.03;;;;;;;16.78;100.00;98243.36;1755601;80;21053;-47
2022/09/28 09:58:10;;;;;;;8.50;7.72;;;;;;;16.81;100.00;98243.08;1760988;80;22478;-47
2022/09/28 10:00:41;;;;;;;7.70;6.97;;;;;;;16.83;100.00;98244.30;1744617;80;21151;-47
2022/09/28 10:03:27;;;;;;;8.83;8.10;;;;;;;16.86;100.00;98238.53;1761928;79;21037;-46
2022/09/28 10:06:02;;;;;;;8.30;7.47;;;;;;;16.87;100.00;98233.45;1761999;80;20975;-47
2022/09/28 10:08:34;;;;;;;8.60;7.78;;;;;;;16.88;100.00;98237.89;1759763;80;21686;-47
2022/09/28 10:11:20;;;;;;;7.08;6.47;;;;;;;16.87;100.00;98245.69;1761425;80;21588;-48
2022/09/28 10:13:49;;;;;;;10.10;8.98;;;;;;;16.87;100.00;98242.97;1758061;80;21119;-49
2022/09/28 10:16:35;;;;;;;11.22;9.50;;;;;;;16.88;100.00;98241.97;1745064;80;21065;-47
2022/09/28 10:19:04;;;;;;;14.30;9.60;;;;;;;16.89;100.00;98240.97;1740395;80;21209;-47
2022/09/28 10:21:39;;;;;;;27.82;10.20;;;;;;;16.95;100.00;98234.92;1719458;80;21093;-48
2022/09/28 10:24:17;;;;;;;10.50;8.30;;;;;;;17.00;100.00;98236.70;1729645;80;21842;-49
2022/09/28 10:30:00;;;;;;;8.13;7.53;;;;;;;17.07;100.00;98226.93;1787907;78;29062;-46
2022/09/28 10:32:44;;;;;;;7.72;7.10;;;;;;;17.07;95.70;98230.16;1767023;79;21069;-46
2022/09/28 10:35:20;;;;;;;7.15;6.45;;;;;;;17.06;96.18;98232.02;1772264;79;21920;-47
2022/09/28 10:38:03;;;;;;;4.60;4.30;;;;;;;17.04;96.55;98229.94;1771388;80;21670;-45
2022/09/28 10:40:45;;;;;;;5.60;5.17;;;;;;;17.01;96.83;98234.34;1764062;79;21145;-48
2022/09/28 10:43:25;;;;;;;5.35;5.05;;;;;;;16.98;97.06;98231.41;1769601;79;21091;-45
2022/09/28 10:46:07;;;;;;;4.83;4.53;;;;;;;16.97;97.28;98229.70;1769153;79;21053;-49
2022/09/28 10:49:12;;;;;;;5.55;5.15;;;;;;;17.00;97.41;98236.70;1766287;79;21826;-49
2022/09/28 10:51:46;;;;;;;6.80;6.35;;;;;;;17.02;97.52;98233.30;1768615;79;21623;-48
2022/09/28 10:54:23;;;;;;;7.45;6.95;;;;;;;17.05;97.61;98228.94;1711775;81;21113;-49
2022/09/28 10:56:52;;;;;;;6.87;6.28;;;;;;;17.08;97.71;98226.43;1711274;81;21064;-49
2022/09/28 10:59:38;;;;;;;;;;;;;;;17.10;97.79;98227.97;1687093;83;21729;-49
2022/09/28 11:02:30;;;;;;;9.05;8.28;;;;;;;17.15;97.83;98235.19;1714260;81;21871;-48
2022/09/28 11:05:00;;;;;;;;;;;;;;;17.16;97.87;98226.02;1691955;83;21082;-48
2022/09/28 11:07:31;;;;;;;6.58;6.08;;;;;;;17.21;97.94;98229.62;1726257;81;20180;-47
2022/09/28 11:09:57;;;;;;;5.90;5.50;;;;;;;17.28;97.92;98228.01;1721774;81;21061;-48
2022/09/28 11:12:28;;;;;;;5.55;5.15;;;;;;;17.33;97.92;98227.92;1721359;81;21061;-48
2022/09/28 11:15:02;;;;;;;6.53;5.90;;;;;;;17.42;97.86;98229.37;1717868;81;21819;-47
2022/09/28 11:17:39;;;;;;;7.40;6.73;;;;;;;17.48;97.79;98230.96;1717797;81;21061;-50
2022/09/28 11:20:29;;;;;;;4.75;4.45;;;;;;;17.54;97.70;98232.20;1712852;81;21042;-48
2022/09/28 11:23:16;;;;;;;3.77;3.58;;;;;;;17.59;97.68;98229.39;1688946;83;21279;-48
2022/09/28 11:25:44;;;;;;;5.58;5.17;;;;;;;17.62;97.70;98232.31;1688617;83;21096;-47
2022/09/28 11:28:18;;;;;;;5.45;5.05;;;;;;;17.62;97.76;98232.31;1670804;82;21841;-48
2022/09/28 11:30:51;;;;;;;6.42;5.85;;;;;;;17.62;97.78;98232.31;1642730;83;21086;-49
2022/09/28 11:33:36;;;;;;;5.80;5.30;;;;;;;17.61;97.83;98228.70;1671040;83;21122;-48
2022/09/28 11:36:22;;;;;;;5.72;5.25;;;;;;;17.62;97.85;98238.61;1662806;83;21109;-47
2022/09/28 11:39:11;;;;;;;6.33;5.58;;;;;;;17.63;97.87;98232.66;1740669;80;21029;-48
2022/09/28 11:42:16;;;;;;;6.17;5.75;;;;;;;17.63;97.93;98232.66;1744806;80;21839;-47
2022/09/28 11:44:45;;;;;;;7.17;6.70;;;;;;;17.59;98.01;98238.91;1746529;80;21064;-46
2022/09/28 11:47:48;;;;;;;8.08;7.58;;;;;;;17.56;98.03;98232.91;1747604;80;21530;-49
2022/09/28 11:50:29;;;;;;;9.75;8.75;;;;;;;17.55;98.12;98228.47;1681450;83;21001;-46
2022/09/28 11:53:19;;;;;;;8.83;7.90;;;;;;;17.51;98.20;98240.69;1688012;83;21523;-46
2022/09/28 11:55:54;;;;;;;8.80;7.97;;;;;;;17.49;98.27;98244.06;1681591;83;21962;-46
2022/09/28 11:58:34;;;;;;;7.95;7.05;;;;;;;17.44;98.34;98247.22;1742631;80;22098;-47
2022/09/28 12:01:15;;;;;;;5.67;5.12;;;;;;;17.41;98.42;98236.67;1713685;80;21052;-48
2022/09/28 12:03:58;;;;;;;6.00;5.60;;;;;;;17.37;98.49;98234.75;1741011;80;21109;-47
2022/09/28 12:06:36;;;;;;;5.72;5.33;;;;;;;17.37;98.52;98232.53;1711636;80;21439;-47
2022/09/28 12:09:08;;;;;;;5.35;5.15;;;;;;;17.37;98.53;98235.25;1743374;80;21981;-49